createdAt,value
2017-05-31T00:00:03.010Z,19.20
2017-05-31T00:02:29.942Z,19.20
2017-05-31T00:04:57.227Z,19.50
2017-05-31T00:07:24.166Z,19.50
2017-05-31T00:09:51.506Z,19.60
2017-05-31T00:12:18.786Z,19.70
2017-05-31T00:14:46.102Z,19.70
2017-05-31T00:17:13.385Z,19.70
2017-05-31T00:19:40.717Z,19.80
2017-05-31T00:22:08.072Z,19.50
2017-05-31T00:24:35.433Z,19.40
2017-05-31T00:27:02.801Z,19.40
2017-05-31T00:29:29.730Z,19.40
2017-05-31T00:31:57.021Z,19.30
2017-05-31T00:34:24.346Z,19.40
2017-05-31T00:36:51.638Z,19.50
2017-05-31T00:39:18.949Z,19.30
2017-05-31T00:41:46.285Z,19.20
2017-05-31T00:44:13.181Z,19.20
2017-05-31T00:46:40.506Z,19.40
2017-05-31T00:49:07.870Z,19.40
2017-05-31T00:51:34.809Z,19.40
2017-05-31T00:54:02.189Z,19.30
2017-05-31T00:56:29.078Z,19.30
2017-05-31T00:58:56.374Z,19.10
2017-05-31T01:01:23.701Z,19.00
2017-05-31T01:03:50.981Z,18.80
2017-05-31T01:06:18.329Z,18.50
2017-05-31T01:08:45.658Z,18.30
2017-05-31T01:11:12.999Z,18.30
2017-05-31T01:13:40.293Z,18.30
2017-05-31T01:16:07.221Z,18.30
2017-05-31T01:18:34.714Z,18.20
2017-05-31T01:21:02.434Z,18.10
2017-05-31T01:23:29.746Z,17.90
2017-05-31T01:25:57.039Z,17.80
2017-05-31T01:28:24.421Z,17.90
2017-05-31T01:30:51.766Z,17.90
2017-05-31T01:33:18.653Z,17.90
2017-05-31T01:35:45.986Z,17.80
2017-05-31T01:38:12.878Z,17.80
2017-05-31T01:40:40.168Z,17.90
2017-05-31T01:43:07.118Z,17.90
2017-05-31T01:45:34.005Z,18.10
2017-05-31T01:48:00.896Z,18.00
2017-05-31T01:50:28.229Z,17.80
2017-05-31T01:52:55.229Z,17.80
2017-05-31T01:55:22.588Z,18.10
2017-05-31T01:57:49.911Z,18.20
2017-05-31T02:00:17.198Z,18.00
2017-05-31T02:02:44.155Z,18.00
2017-05-31T02:05:11.488Z,17.90
2017-05-31T02:07:38.850Z,18.00
2017-05-31T02:10:06.243Z,17.90
2017-05-31T02:12:33.686Z,17.90
2017-05-31T02:15:01.018Z,17.80
2017-05-31T02:17:28.315Z,17.90
2017-05-31T02:19:55.645Z,17.90
2017-05-31T02:22:22.930Z,17.90
2017-05-31T02:24:50.238Z,18.00
2017-05-31T02:27:17.582Z,18.20
2017-05-31T02:29:44.949Z,18.30
2017-05-31T02:32:12.234Z,18.30
2017-05-31T02:34:39.670Z,18.20
2017-05-31T02:37:07.027Z,18.00
2017-05-31T02:39:34.316Z,17.70
2017-05-31T02:42:01.762Z,17.50
2017-05-31T02:44:28.783Z,17.50
2017-05-31T02:46:56.137Z,17.30
2017-05-31T02:49:23.034Z,17.30
2017-05-31T02:51:50.450Z,17.30
2017-05-31T02:54:17.390Z,17.30
2017-05-31T02:56:44.689Z,17.10
2017-05-31T02:59:12.157Z,16.90
2017-05-31T03:01:39.446Z,16.80
2017-05-31T03:04:06.818Z,16.70
2017-05-31T03:06:34.149Z,16.70
2017-05-31T03:09:01.446Z,16.80
2017-05-31T03:11:28.731Z,16.80
2017-05-31T03:13:56.139Z,16.80
2017-05-31T03:16:23.491Z,16.80
2017-05-31T03:18:50.950Z,16.90
2017-05-31T03:21:18.314Z,16.90
2017-05-31T03:23:45.595Z,16.80
2017-05-31T03:26:12.921Z,16.80
2017-05-31T03:28:40.314Z,16.90
2017-05-31T03:31:07.220Z,16.90
2017-05-31T03:33:34.585Z,17.30
2017-05-31T03:36:01.903Z,17.50
2017-05-31T03:38:29.282Z,17.70
2017-05-31T03:40:56.622Z,17.60
2017-05-31T03:43:23.994Z,17.40
2017-05-31T03:45:51.350Z,17.40
2017-05-31T03:48:18.685Z,17.50
2017-05-31T03:50:46.014Z,17.60
2017-05-31T03:53:13.302Z,17.70
2017-05-31T03:55:40.231Z,17.70
2017-05-31T03:58:07.613Z,17.80
2017-05-31T04:00:34.546Z,17.80
2017-05-31T04:03:01.929Z,17.80
2017-05-31T04:05:29.275Z,17.80
2017-05-31T04:07:56.645Z,17.80
2017-05-31T04:10:23.578Z,17.80
2017-05-31T04:12:50.863Z,18.10
2017-05-31T04:15:18.181Z,18.20
2017-05-31T04:17:45.522Z,18.30
2017-05-31T04:20:12.898Z,18.50
2017-05-31T04:22:40.258Z,18.50
2017-05-31T04:25:07.587Z,18.40
2017-05-31T04:27:34.877Z,18.30
2017-05-31T04:30:02.262Z,18.30
2017-05-31T04:32:29.674Z,18.30
2017-05-31T04:34:56.634Z,18.30
2017-05-31T04:37:23.542Z,18.20
2017-05-31T04:39:50.862Z,17.80
2017-05-31T04:42:18.142Z,17.90
2017-05-31T04:44:45.450Z,17.90
2017-05-31T04:47:12.896Z,17.90
2017-05-31T04:49:40.174Z,17.90
2017-05-31T04:52:07.469Z,18.00
2017-05-31T04:54:34.455Z,18.00
2017-05-31T04:57:01.736Z,17.80
2017-05-31T04:59:28.662Z,17.80
2017-05-31T05:01:56.052Z,18.00
2017-05-31T05:04:23.362Z,18.00
2017-05-31T05:06:50.732Z,18.10
2017-05-31T05:09:18.180Z,18.00
2017-05-31T05:11:45.546Z,18.10
2017-05-31T05:14:12.523Z,18.10
2017-05-31T05:16:39.975Z,17.90
2017-05-31T05:19:07.271Z,18.10
2017-05-31T05:21:34.597Z,18.00
2017-05-31T05:24:01.910Z,18.20
2017-05-31T05:26:29.262Z,18.50
2017-05-31T05:28:56.247Z,18.50
2017-05-31T05:31:23.527Z,18.40
2017-05-31T05:33:50.918Z,18.60
2017-05-31T05:36:18.378Z,18.80
2017-05-31T05:38:45.662Z,18.80
2017-05-31T05:41:12.947Z,18.80
2017-05-31T05:43:40.341Z,18.70
2017-05-31T05:46:07.294Z,18.70
2017-05-31T05:48:34.593Z,18.60
2017-05-31T05:51:01.554Z,18.60
2017-05-31T05:53:28.848Z,18.90
2017-05-31T05:55:56.230Z,19.20
2017-05-31T05:58:23.582Z,19.30
2017-05-31T06:00:50.542Z,19.30
2017-05-31T06:03:17.829Z,19.00
2017-05-31T06:05:45.158Z,18.90
2017-05-31T06:08:12.469Z,18.70
2017-05-31T06:10:39.760Z,18.60
2017-05-31T06:13:07.098Z,18.60
2017-05-31T06:15:34.410Z,18.80
2017-05-31T06:18:01.386Z,18.80
2017-05-31T06:20:28.842Z,18.70
2017-05-31T06:22:56.131Z,18.80
2017-05-31T06:25:23.436Z,18.90
2017-05-31T06:27:50.770Z,19.10
2017-05-31T06:30:18.166Z,19.10
2017-05-31T06:32:45.524Z,19.00
2017-05-31T06:35:12.845Z,19.20
2017-05-31T06:37:40.142Z,19.20
2017-05-31T06:40:07.485Z,19.30
2017-05-31T06:42:34.844Z,19.40
2017-05-31T06:45:01.733Z,19.40
2017-05-31T06:47:29.022Z,19.50
2017-05-31T06:49:56.402Z,19.60
2017-05-31T06:52:23.746Z,19.60
2017-05-31T06:54:51.015Z,19.50
2017-05-31T06:57:18.362Z,19.60
2017-05-31T06:59:45.730Z,19.70
2017-05-31T07:02:13.077Z,20.00
2017-05-31T07:04:40.403Z,20.00
2017-05-31T07:07:07.699Z,20.00
2017-05-31T07:09:35.039Z,19.90
2017-05-31T07:12:02.382Z,20.00
2017-05-31T07:14:29.662Z,20.00
2017-05-31T07:16:57.005Z,20.00
2017-05-31T07:19:24.374Z,20.10
2017-05-31T07:21:51.718Z,20.20
2017-05-31T07:24:19.027Z,20.20
2017-05-31T07:26:46.025Z,20.10
2017-05-31T07:29:13.323Z,20.60
2017-05-31T07:31:40.607Z,20.90
2017-05-31T07:34:07.989Z,21.10
2017-05-31T07:36:35.347Z,21.10
2017-05-31T07:39:02.642Z,21.10
2017-05-31T07:41:29.973Z,21.30
2017-05-31T07:43:56.873Z,21.30
2017-05-31T07:46:24.258Z,21.80
2017-05-31T07:48:51.193Z,21.80
2017-05-31T07:51:18.589Z,22.10
2017-05-31T07:53:45.926Z,21.90
2017-05-31T07:56:12.849Z,21.80
2017-05-31T07:58:40.245Z,21.40
2017-05-31T08:01:07.609Z,21.50
2017-05-31T08:03:35.006Z,21.60
2017-05-31T08:06:02.332Z,21.70
2017-05-31T08:08:29.703Z,21.80
2017-05-31T08:10:56.990Z,22.00
2017-05-31T08:13:24.347Z,22.10
2017-05-31T08:15:51.698Z,22.20
2017-05-31T08:18:19.057Z,22.30
2017-05-31T08:20:46.018Z,22.30
2017-05-31T08:23:12.955Z,22.40
2017-05-31T08:25:40.241Z,22.10
2017-05-31T08:28:07.570Z,22.00
2017-05-31T08:30:34.919Z,22.00
2017-05-31T08:33:02.279Z,22.10
2017-05-31T08:35:29.582Z,22.30
2017-05-31T08:37:56.486Z,22.30
2017-05-31T08:40:23.424Z,22.30
2017-05-31T08:42:50.350Z,22.60
2017-05-31T08:45:17.764Z,23.10
2017-05-31T08:47:45.089Z,23.30
2017-05-31T08:50:12.457Z,23.40
2017-05-31T08:52:39.834Z,23.60
2017-05-31T08:55:07.122Z,23.30
2017-05-31T08:57:34.469Z,22.70
2017-05-31T09:00:01.769Z,22.50
2017-05-31T09:02:29.059Z,22.20
2017-05-31T09:04:56.417Z,22.10
2017-05-31T09:07:23.714Z,22.30
2017-05-31T09:09:51.086Z,22.10
2017-05-31T09:12:18.430Z,22.30
2017-05-31T09:14:45.793Z,22.70
2017-05-31T09:17:13.080Z,23.00
2017-05-31T09:19:40.506Z,23.10
2017-05-31T09:22:07.797Z,23.20
2017-05-31T09:24:35.152Z,23.30
2017-05-31T09:27:02.570Z,23.50
2017-05-31T09:29:29.870Z,23.40
2017-05-31T09:31:57.238Z,23.00
2017-05-31T09:34:24.542Z,22.90
2017-05-31T09:36:51.913Z,22.90
2017-05-31T09:39:19.268Z,23.20
2017-05-31T09:41:46.610Z,23.60
2017-05-31T09:44:13.922Z,23.60
2017-05-31T09:46:41.318Z,23.00
2017-05-31T09:49:08.674Z,22.60
2017-05-31T09:51:35.964Z,22.70
2017-05-31T09:54:03.386Z,23.10
2017-05-31T09:56:30.662Z,23.50
2017-05-31T09:58:58.086Z,23.90
2017-05-31T10:01:25.457Z,23.70
2017-05-31T10:03:52.861Z,23.50
2017-05-31T10:06:19.761Z,23.50
2017-05-31T10:08:47.095Z,23.30
2017-05-31T10:11:14.404Z,23.40
2017-05-31T10:13:41.689Z,23.20
2017-05-31T10:16:09.037Z,23.10
2017-05-31T10:18:36.469Z,23.40
2017-05-31T10:21:03.750Z,23.70
2017-05-31T10:23:31.101Z,23.80
2017-05-31T10:25:58.394Z,23.90
2017-05-31T10:28:25.689Z,23.70
2017-05-31T10:30:53.110Z,23.90
2017-05-31T10:33:20.485Z,24.10
2017-05-31T10:35:47.811Z,23.80
2017-05-31T10:38:15.178Z,23.70
2017-05-31T10:40:42.482Z,23.90
2017-05-31T10:43:09.821Z,23.90
2017-05-31T10:45:37.151Z,24.10
2017-05-31T10:48:04.512Z,23.90
2017-05-31T10:50:31.838Z,23.90
2017-05-31T10:52:59.214Z,23.60
2017-05-31T10:55:26.589Z,23.10
2017-05-31T10:57:54.030Z,23.20
2017-05-31T11:00:21.390Z,23.50
2017-05-31T11:02:48.744Z,24.00
2017-05-31T11:05:16.112Z,24.30
2017-05-31T11:07:43.396Z,24.40
2017-05-31T11:10:10.707Z,24.50
2017-05-31T11:12:37.701Z,24.50
2017-05-31T11:15:04.977Z,24.60
2017-05-31T11:17:32.370Z,24.50
2017-05-31T11:19:59.694Z,24.60
2017-05-31T11:22:26.990Z,24.60
2017-05-31T11:24:54.279Z,24.20
2017-05-31T11:27:21.687Z,23.80
2017-05-31T11:29:49.043Z,23.80
2017-05-31T11:32:16.372Z,23.90
2017-05-31T11:34:43.757Z,23.80
2017-05-31T11:37:11.377Z,23.80
2017-05-31T11:39:38.675Z,24.00
2017-05-31T11:42:06.005Z,24.10
2017-05-31T11:44:32.977Z,24.10
2017-05-31T11:47:00.303Z,24.40
2017-05-31T11:49:27.724Z,24.60
2017-05-31T11:51:54.619Z,24.60
2017-05-31T11:54:21.529Z,24.70
2017-05-31T11:56:48.946Z,24.20
2017-05-31T11:59:16.285Z,24.30
2017-05-31T12:01:43.654Z,24.40
2017-05-31T12:04:11.002Z,24.20
2017-05-31T12:06:37.989Z,24.20
2017-05-31T12:09:06.246Z,24.10
2017-05-31T12:11:33.582Z,24.20
2017-05-31T12:14:00.902Z,24.30
2017-05-31T12:16:28.227Z,24.40
2017-05-31T12:18:55.514Z,24.20
2017-05-31T12:21:22.799Z,23.90
2017-05-31T12:23:50.126Z,23.60
2017-05-31T12:26:17.415Z,23.90
2017-05-31T12:28:44.304Z,23.80
2017-05-31T12:31:11.686Z,24.00
2017-05-31T12:33:39.058Z,23.90
2017-05-31T12:36:06.395Z,23.90
2017-05-31T12:38:33.763Z,24.10
2017-05-31T12:41:01.049Z,24.40
2017-05-31T12:43:28.379Z,24.50
2017-05-31T12:45:55.410Z,24.50
2017-05-31T12:48:22.774Z,24.80
2017-05-31T12:50:50.141Z,24.50
2017-05-31T12:53:17.490Z,24.20
2017-05-31T12:55:44.798Z,24.20
2017-05-31T12:58:12.148Z,24.20
2017-05-31T13:00:39.511Z,24.40
2017-05-31T13:03:06.849Z,24.40
2017-05-31T13:05:34.169Z,24.60
2017-05-31T13:08:01.558Z,25.00
2017-05-31T13:10:28.925Z,25.20
2017-05-31T13:12:56.273Z,25.20
2017-05-31T13:15:23.659Z,24.90
2017-05-31T13:17:50.994Z,24.80
2017-05-31T13:20:18.597Z,24.70
2017-05-31T13:22:45.498Z,24.70
2017-05-31T13:25:12.446Z,24.40
2017-05-31T13:27:39.505Z,24.60
2017-05-31T13:30:06.792Z,24.60
2017-05-31T13:32:34.066Z,24.40
2017-05-31T13:35:01.392Z,24.50
2017-05-31T13:37:28.853Z,24.90
2017-05-31T13:39:56.158Z,25.10
2017-05-31T13:42:23.509Z,25.40
2017-05-31T13:44:50.838Z,25.60
2017-05-31T13:47:18.118Z,25.50
2017-05-31T13:49:45.437Z,25.10
2017-05-31T13:52:12.725Z,25.00
2017-05-31T13:54:40.023Z,24.80
2017-05-31T13:57:07.390Z,24.90
2017-05-31T13:59:34.669Z,25.10
2017-05-31T14:02:01.997Z,25.00
2017-05-31T14:04:29.325Z,25.10
2017-05-31T14:06:56.689Z,25.20
2017-05-31T14:09:24.034Z,25.60
2017-05-31T14:11:51.405Z,26.10
2017-05-31T14:14:18.705Z,26.40
2017-05-31T14:16:46.034Z,26.60
2017-05-31T14:19:13.386Z,26.00
2017-05-31T14:21:40.713Z,25.40
2017-05-31T14:24:08.002Z,25.50
2017-05-31T14:26:35.020Z,25.50
2017-05-31T14:29:02.361Z,25.60
2017-05-31T14:31:29.742Z,25.90
2017-05-31T14:33:57.210Z,25.70
2017-05-31T14:36:24.494Z,25.60
2017-05-31T14:38:51.789Z,25.60
2017-05-31T14:41:19.205Z,25.60
2017-05-31T14:43:46.565Z,25.80
2017-05-31T14:46:20.037Z,25.80
2017-05-31T14:48:48.001Z,25.70
2017-05-31T14:51:17.100Z,25.40
2017-05-31T14:53:44.390Z,25.60
2017-05-31T14:56:11.725Z,25.70
2017-05-31T14:58:38.657Z,25.80
2017-05-31T15:01:05.545Z,25.50
2017-05-31T15:03:32.565Z,25.60
2017-05-31T15:05:59.454Z,25.70
2017-05-31T15:08:26.762Z,26.00
2017-05-31T15:10:54.095Z,26.00
2017-05-31T15:13:21.378Z,26.00
2017-05-31T15:15:48.658Z,25.90
2017-05-31T15:18:16.067Z,25.80
2017-05-31T15:20:43.435Z,25.70
2017-05-31T15:23:10.750Z,25.90
2017-05-31T15:25:38.124Z,26.10
2017-05-31T15:28:05.475Z,26.30
2017-05-31T15:30:32.397Z,26.40
2017-05-31T15:32:59.776Z,27.40
2017-05-31T15:35:27.139Z,27.60
2017-05-31T15:37:54.426Z,27.70
2017-05-31T15:40:21.383Z,27.70
2017-05-31T15:42:48.662Z,27.60
2017-05-31T15:45:15.954Z,27.30
2017-05-31T15:47:43.298Z,27.00
2017-05-31T15:50:10.663Z,26.90
2017-05-31T15:52:38.001Z,26.60
2017-05-31T15:55:04.987Z,26.60
2017-05-31T15:57:31.890Z,26.50
2017-05-31T15:59:59.178Z,26.70
2017-05-31T16:02:26.725Z,26.90
2017-05-31T16:04:54.008Z,27.00
2017-05-31T16:07:21.317Z,26.60
2017-05-31T16:09:48.668Z,26.60
2017-05-31T16:12:16.042Z,26.90
2017-05-31T16:14:43.398Z,26.90
2017-05-31T16:17:10.754Z,26.80
2017-05-31T16:19:38.102Z,27.10
2017-05-31T16:22:05.385Z,27.40
2017-05-31T16:24:32.825Z,27.80
2017-05-31T16:27:00.170Z,28.50
2017-05-31T16:29:27.535Z,29.50
2017-05-31T16:31:54.473Z,29.50
2017-05-31T16:34:21.834Z,30.80
2017-05-31T16:36:49.182Z,30.50
2017-05-31T16:39:16.549Z,30.50
2017-05-31T16:41:43.924Z,30.80
2017-05-31T16:44:11.289Z,31.20
2017-05-31T16:46:38.632Z,31.40
2017-05-31T16:49:05.966Z,31.50
2017-05-31T16:51:33.254Z,31.30
2017-05-31T16:54:00.685Z,31.30
2017-05-31T16:56:27.622Z,31.30
2017-05-31T16:58:54.910Z,31.60
2017-05-31T17:01:22.278Z,31.90
2017-05-31T17:03:49.217Z,31.90
2017-05-31T17:06:16.494Z,31.90
2017-05-31T17:08:43.890Z,31.90
2017-05-31T17:11:11.241Z,32.10
2017-05-31T17:13:38.522Z,32.50
2017-05-31T17:16:05.966Z,32.60
2017-05-31T17:18:33.410Z,32.40
2017-05-31T17:21:00.771Z,31.70
2017-05-31T17:23:27.705Z,31.70
2017-05-31T17:25:54.986Z,31.10
2017-05-31T17:28:22.282Z,30.90
2017-05-31T17:30:49.623Z,30.90
2017-05-31T17:33:16.958Z,31.00
2017-05-31T17:35:44.313Z,30.90
2017-05-31T17:38:11.205Z,30.90
2017-05-31T17:40:38.544Z,30.00
2017-05-31T17:43:05.846Z,29.80
2017-05-31T17:45:33.133Z,29.40
2017-05-31T17:48:00.053Z,29.40
2017-05-31T17:50:27.412Z,28.40
2017-05-31T17:52:54.701Z,28.00
2017-05-31T17:55:21.653Z,28.00
2017-05-31T17:57:48.941Z,27.40
2017-05-31T18:00:16.218Z,27.00
2017-05-31T18:02:43.159Z,27.00
2017-05-31T18:05:10.444Z,26.50
2017-05-31T18:07:37.768Z,26.30
2017-05-31T18:10:05.122Z,26.40
2017-05-31T18:12:32.485Z,26.00
2017-05-31T18:14:59.425Z,26.00
2017-05-31T18:17:26.754Z,25.60
2017-05-31T18:19:54.045Z,25.70
2017-05-31T18:22:21.399Z,25.80
2017-05-31T18:24:48.730Z,25.70
2017-05-31T18:27:16.013Z,25.60
2017-05-31T18:29:43.294Z,25.60
2017-05-31T18:32:10.758Z,25.60
2017-05-31T18:34:38.685Z,25.70
2017-05-31T18:37:06.046Z,25.80
2017-05-31T18:39:33.401Z,25.70
2017-05-31T18:42:00.383Z,25.70
2017-05-31T18:44:27.718Z,25.50
2017-05-31T18:46:55.063Z,25.30
2017-05-31T18:49:22.409Z,25.20
2017-05-31T18:51:49.373Z,25.20
2017-05-31T18:54:16.406Z,24.90
2017-05-31T18:56:43.302Z,24.80
2017-05-31T18:59:10.594Z,24.90
2017-05-31T19:01:37.956Z,24.80
2017-05-31T19:04:05.236Z,24.80
2017-05-31T19:06:32.581Z,24.80
2017-05-31T19:08:59.930Z,24.80
2017-05-31T19:11:27.214Z,24.80
2017-05-31T19:13:54.499Z,24.60
2017-05-31T19:16:21.827Z,24.40
2017-05-31T19:18:49.142Z,24.30
2017-05-31T19:21:16.469Z,24.10
2017-05-31T19:23:43.853Z,24.00
2017-05-31T19:26:11.143Z,23.90
2017-05-31T19:28:38.513Z,24.00
2017-05-31T19:31:05.936Z,24.00
2017-05-31T19:33:32.820Z,24.00
2017-05-31T19:36:00.132Z,24.00
2017-05-31T19:38:27.528Z,24.00
2017-05-31T19:40:54.842Z,24.10
2017-05-31T19:43:22.219Z,24.00
2017-05-31T19:45:49.183Z,24.00
2017-05-31T19:48:16.465Z,23.90
2017-05-31T19:50:43.858Z,23.90
2017-05-31T19:53:11.214Z,23.90
2017-05-31T19:55:38.503Z,23.80
2017-05-31T19:58:05.786Z,23.80
2017-05-31T20:00:33.174Z,23.80
2017-05-31T20:03:00.453Z,23.70
2017-05-31T20:05:27.798Z,23.70
2017-05-31T20:07:54.839Z,23.70
2017-05-31T20:10:21.741Z,23.70
2017-05-31T20:12:49.037Z,23.60
2017-05-31T20:15:16.394Z,23.50
2017-05-31T20:17:43.746Z,23.30
2017-05-31T20:20:11.040Z,23.00
2017-05-31T20:22:38.462Z,22.70
2017-05-31T20:25:05.822Z,22.50
2017-05-31T20:27:33.102Z,22.40
2017-05-31T20:30:00.433Z,22.30
2017-05-31T20:32:27.783Z,22.20
2017-05-31T20:34:54.691Z,22.20
2017-05-31T20:37:22.081Z,22.20
2017-05-31T20:39:49.446Z,22.20
2017-05-31T20:42:16.727Z,22.00
2017-05-31T20:44:44.047Z,22.00
2017-05-31T20:47:11.411Z,21.90
2017-05-31T20:49:38.717Z,21.80
2017-05-31T20:52:06.065Z,21.80
2017-05-31T20:54:33.376Z,21.70
2017-05-31T20:57:00.765Z,21.70
2017-05-31T20:59:28.100Z,21.60
2017-05-31T21:01:55.439Z,21.50
2017-05-31T21:04:22.733Z,21.50
2017-05-31T21:06:50.261Z,21.40
2017-05-31T21:09:17.164Z,21.50
2017-05-31T21:11:44.446Z,21.50
2017-05-31T21:14:11.801Z,21.40
2017-05-31T21:16:39.094Z,21.40
2017-05-31T21:19:06.386Z,21.40
2017-05-31T21:21:33.746Z,21.40
2017-05-31T21:24:01.031Z,21.40
2017-05-31T21:26:28.317Z,21.40
2017-05-31T21:28:55.242Z,21.40
2017-05-31T21:31:22.561Z,21.40
2017-05-31T21:33:49.893Z,21.40
2017-05-31T21:36:17.234Z,21.40
2017-05-31T21:38:44.517Z,21.40
2017-05-31T21:41:11.909Z,21.30
2017-05-31T21:43:39.269Z,21.40
2017-05-31T21:46:06.559Z,21.40
2017-05-31T21:48:33.862Z,21.30
2017-05-31T21:51:01.193Z,21.30
2017-05-31T21:53:28.488Z,21.30
2017-05-31T21:55:55.850Z,21.30
2017-05-31T21:58:23.204Z,21.30
2017-05-31T22:00:50.526Z,21.30
2017-05-31T22:03:17.840Z,21.30
2017-05-31T22:05:45.134Z,21.30
2017-05-31T22:08:12.074Z,21.30
2017-05-31T22:10:39.362Z,21.20
2017-05-31T22:13:06.650Z,21.10
2017-05-31T22:15:34.073Z,21.00
2017-05-31T22:18:01.366Z,20.90
2017-05-31T22:20:28.649Z,20.90
2017-05-31T22:22:56.046Z,20.80
2017-05-31T22:25:23.334Z,20.70
2017-05-31T22:27:50.648Z,20.70
2017-05-31T22:30:18.002Z,20.70
2017-05-31T22:32:45.362Z,20.80
2017-05-31T22:35:12.734Z,20.80
2017-05-31T22:37:40.110Z,20.80
2017-05-31T22:40:07.386Z,20.80
2017-05-31T22:42:34.683Z,20.80
2017-05-31T22:45:02.188Z,20.80
2017-05-31T22:47:29.125Z,20.80
2017-05-31T22:49:56.453Z,20.70
2017-05-31T22:52:23.742Z,20.70
2017-05-31T22:54:50.681Z,20.70
2017-05-31T22:57:18.002Z,20.60
2017-05-31T22:59:45.350Z,20.70
2017-05-31T23:02:12.706Z,20.70
2017-05-31T23:04:40.063Z,20.70
2017-05-31T23:07:07.426Z,20.70
2017-05-31T23:09:34.378Z,20.70
2017-05-31T23:12:01.662Z,20.90
2017-05-31T23:14:28.557Z,20.90
2017-05-31T23:16:55.890Z,20.80
2017-05-31T23:19:23.280Z,20.70
2017-05-31T23:21:50.174Z,20.70
2017-05-31T23:24:17.586Z,20.50
2017-05-31T23:26:44.894Z,20.30
2017-05-31T23:29:12.206Z,20.20
2017-05-31T23:31:39.565Z,20.10
2017-05-31T23:34:06.965Z,20.00
2017-05-31T23:36:34.256Z,19.90
2017-05-31T23:39:01.230Z,19.90
2017-05-31T23:41:28.158Z,19.90
2017-05-31T23:43:55.057Z,19.90
2017-05-31T23:46:22.399Z,19.70
2017-05-31T23:48:49.714Z,19.70
2017-05-31T23:51:17.001Z,19.60
2017-05-31T23:53:44.330Z,19.60
2017-05-31T23:56:11.678Z,19.70
2017-05-31T23:58:38.968Z,19.80
